Hopkinsville, Kentucky
Current Conditions -  °F | °C
As of 12:04 PM on Friday 19 Dec 2014 (Local Time) from KHOP Reporting Station
Overcast Overcast  
Wind Chill: 34°   Ceiling: 1900
Heat Index: 37°   Visibility: 10mi
Dew Point: 28°   Wind: 5mph
Humidity: 70%   Direction: 110°ESE
Pressure: 30.25"   Gusts: NA
Location:  36.87°N, 87.49°W
Report Text: KHOP 191804Z AUTO 11004KT 10SM BKN019 OVC039 03/M02 A3025 RMK AO2 CIG 019V039 BKN V SCT
Loading
Personal Weather Stations






























Interactive Weather Map New forecast layout! Learn more

10-Day Weather Forecast

Advertisements
Track Severe Weather on mobile